Time;durP1;ratioP1;P1;durP2;ratioP2;P2;SDS_P1;SDS_P2;PMS_P1;PMS_P2;Temp;Humidity;BMP_temperature;BMP_pressure;BME280_temperature;BME280_humidity;BME280_pressure;Samples;Min_cycle;Max_cycle;Signal;HPM_P1;HPM_P2
2022/02/27 00:00:36;;;;;;;13.57;4.85;;;3.40;48.20;;;;;;5029202;28;20768;-74
2022/02/27 00:03:02;;;;;;;11.88;4.72;;;3.40;50.90;;;;;;5036005;28;20402;-74
2022/02/27 00:05:28;;;;;;;17.13;4.60;;;3.30;50.00;;;;;;5024800;28;20421;-74
2022/02/27 00:07:53;;;;;;;14.55;4.53;;;3.10;48.40;;;;;;5022610;28;20450;-74
2022/02/27 00:10:21;;;;;;;15.10;4.57;;;3.00;49.00;;;;;;5012876;28;20455;-74
2022/02/27 00:12:50;;;;;;;15.75;4.75;;;2.80;51.20;;;;;;5012484;28;20392;-74
2022/02/27 00:15:16;;;;;;;19.98;7.00;;;2.80;53.50;;;;;;5008149;28;20402;-74
2022/02/27 00:17:42;;;;;;;13.00;4.72;;;2.70;52.20;;;;;;5021044;28;20965;-74
2022/02/27 00:20:09;;;;;;;17.30;5.13;;;2.50;53.70;;;;;;5019143;28;20766;-74
2022/02/27 00:22:37;;;;;;;13.88;4.80;;;2.50;55.70;;;;;;5018425;28;20386;-73
2022/02/27 00:25:04;;;;;;;11.93;4.88;;;2.50;55.00;;;;;;5019627;28;20407;-73
2022/02/27 00:27:29;;;;;;;16.48;4.70;;;2.70;55.90;;;;;;5020950;28;20397;-73
2022/02/27 00:29:55;;;;;;;18.02;4.90;;;2.90;52.40;;;;;;4998865;28;20428;-73
2022/02/27 00:32:21;;;;;;;12.77;3.85;;;2.90;50.60;;;;;;5011832;28;20401;-73
2022/02/27 00:34:46;;;;;;;17.03;4.37;;;2.90;52.50;;;;;;5030870;28;20910;-73
2022/02/27 00:37:12;;;;;;;15.07;4.27;;;2.90;50.30;;;;;;5025781;28;20415;-73
2022/02/27 00:39:37;;;;;;;21.20;4.40;;;2.80;50.60;;;;;;5030401;28;20479;-73
2022/02/27 00:42:03;;;;;;;18.90;5.23;;;3.00;51.40;;;;;;5027727;28;20404;-74
2022/02/27 00:44:29;;;;;;;14.10;4.20;;;3.20;51.40;;;;;;5016573;28;20414;-74
2022/02/27 00:46:54;;;;;;;17.93;5.20;;;3.40;49.00;;;;;;5022509;28;20505;-73
2022/02/27 00:49:20;;;;;;;15.20;5.07;;;3.30;47.70;;;;;;5023548;28;20413;-74
2022/02/27 00:51:45;;;;;;;13.93;4.20;;;3.20;49.20;;;;;;5001350;28;20399;-74
2022/02/27 00:54:11;;;;;;;14.20;4.27;;;3.10;50.10;;;;;;5013927;28;20784;-73
2022/02/27 00:56:37;;;;;;;14.63;3.67;;;3.10;48.90;;;;;;5023452;28;20837;-75
2022/02/27 00:59:03;;;;;;;11.30;4.50;;;3.10;49.00;;;;;;5031340;28;20453;-73
2022/02/27 01:01:29;;;;;;;9.02;3.58;;;3.10;48.40;;;;;;5018200;28;20409;-74
2022/02/27 01:03:55;;;;;;;16.33;3.80;;;3.20;48.30;;;;;;5021454;28;20484;-74
2022/02/27 01:06:21;;;;;;;23.25;4.85;;;3.10;50.20;;;;;;5019423;28;20461;-73
2022/02/27 01:08:46;;;;;;;9.57;3.90;;;3.00;49.20;;;;;;5011450;28;20396;-74
2022/02/27 01:11:12;;;;;;;16.90;4.40;;;3.00;50.10;;;;;;5017167;28;20402;-74
2022/02/27 01:13:38;;;;;;;10.82;3.95;;;3.20;49.10;;;;;;5014066;28;20391;-74
2022/02/27 01:16:06;;;;;;;14.57;4.53;;;3.00;49.10;;;;;;5015344;28;20447;-74
2022/02/27 01:18:32;;;;;;;12.50;4.90;;;2.90;53.20;;;;;;5017316;28;20402;-74
2022/02/27 01:20:57;;;;;;;15.07;4.68;;;2.80;51.70;;;;;;5012278;28;20420;-74
2022/02/27 01:23:23;;;;;;;8.70;3.90;;;2.70;52.90;;;;;;5038380;28;20401;-73
2022/02/27 01:25:48;;;;;;;13.83;5.00;;;2.50;53.20;;;;;;5041668;28;20399;-73
2022/02/27 01:28:14;;;;;;;17.08;4.50;;;2.50;55.10;;;;;;5040182;28;20402;-73
2022/02/27 01:30:40;;;;;;;14.10;5.45;;;2.50;55.40;;;;;;5029570;28;20487;-73
2022/02/27 01:33:05;;;;;;;17.53;5.37;;;2.40;53.30;;;;;;5023334;28;20392;-73
2022/02/27 01:35:31;;;;;;;17.60;5.20;;;2.40;55.30;;;;;;5011302;28;20413;-73
2022/02/27 01:37:57;;;;;;;15.97;4.30;;;2.40;54.40;;;;;;5015995;28;20887;-73
2022/02/27 01:40:23;;;;;;;13.38;4.80;;;2.30;56.10;;;;;;5029021;28;20460;-73
2022/02/27 01:42:49;;;;;;;16.35;5.20;;;2.30;56.90;;;;;;5038313;28;20398;-73
2022/02/27 01:45:15;;;;;;;14.52;4.32;;;2.20;57.20;;;;;;5042675;28;20398;-73
2022/02/27 01:47:40;;;;;;;11.33;4.70;;;2.30;55.90;;;;;;5037382;28;20390;-74
2022/02/27 01:50:07;;;;;;;15.82;4.80;;;2.40;57.90;;;;;;5035560;28;20401;-74
2022/02/27 01:52:32;;;;;;;15.50;5.40;;;2.50;56.60;;;;;;5037492;28;20391;-74
2022/02/27 01:54:58;;;;;;;16.05;5.10;;;2.70;53.90;;;;;;5048712;28;20409;-74
2022/02/27 01:57:24;;;;;;;10.93;4.38;;;2.60;53.20;;;;;;5047732;28;20419;-73
2022/02/27 01:59:50;;;;;;;14.90;4.60;;;2.40;55.40;;;;;;5049793;28;20411;-74
2022/02/27 02:02:15;;;;;;;9.15;4.70;;;2.40;54.80;;;;;;5039534;28;20408;-74
2022/02/27 02:04:42;;;;;;;15.83;4.37;;;2.40;57.10;;;;;;5034369;28;20443;-74
2022/02/27 02:07:08;;;;;;;15.55;4.45;;;2.30;57.90;;;;;;5023506;28;20405;-73
2022/02/27 02:09:34;;;;;;;21.08;5.20;;;2.30;59.00;;;;;;5026709;28;20410;-73
2022/02/27 02:12:00;;;;;;;19.10;4.40;;;2.60;58.10;;;;;;5038822;28;20457;-74
2022/02/27 02:14:26;;;;;;;11.50;4.37;;;2.40;55.70;;;;;;5021520;28;20495;-74
2022/02/27 02:16:52;;;;;;;11.10;3.50;;;2.30;58.10;;;;;;5047641;28;20387;-73
2022/02/27 02:19:20;;;;;;;15.40;4.40;;;2.50;60.70;;;;;;5036342;28;20428;-74
2022/02/27 02:21:49;;;;;;;12.27;3.55;;;2.80;56.20;;;;;;5030712;28;20412;-73
2022/02/27 02:24:16;;;;;;;10.88;3.80;;;2.80;53.60;;;;;;5038874;28;20394;-73
2022/02/27 02:26:43;;;;;;;8.00;3.60;;;2.90;52.00;;;;;;5033417;28;20396;-73
2022/02/27 02:29:11;;;;;;;12.00;4.00;;;2.90;51.30;;;;;;5024957;28;20906;-73
2022/02/27 02:31:37;;;;;;;15.05;4.07;;;3.10;49.90;;;;;;5039276;28;20799;-73
2022/02/27 02:34:11;;;;;;;12.25;4.32;;;3.00;49.10;;;;;;5031566;28;20483;-73
2022/02/27 02:36:38;;;;;;;18.13;4.15;;;3.00;50.30;;;;;;5039060;28;20396;-73
2022/02/27 02:39:06;;;;;;;10.60;3.70;;;3.10;51.30;;;;;;5028872;28;20404;-72
2022/02/27 02:41:32;;;;;;;11.40;3.83;;;3.00;49.70;;;;;;5034907;28;20401;-74
2022/02/27 02:43:58;;;;;;;8.80;3.40;;;3.20;49.30;;;;;;5038307;28;21163;-74
2022/02/27 02:46:24;;;;;;;13.30;3.50;;;3.10;48.40;;;;;;5014530;28;20401;-75
2022/02/27 02:48:50;;;;;;;14.80;3.72;;;3.20;48.30;;;;;;5031974;28;20395;-75
2022/02/27 02:51:16;;;;;;;12.48;3.45;;;3.10;48.10;;;;;;5029867;28;20779;-74
2022/02/27 02:53:42;;;;;;;12.77;3.70;;;3.10;47.60;;;;;;5037668;28;20394;-74
2022/02/27 02:56:08;;;;;;;11.48;3.97;;;3.10;46.80;;;;;;5030302;28;20396;-74
2022/02/27 02:58:39;;;;;;;9.40;3.40;;;2.90;49.10;;;;;;5031371;28;20429;-74
2022/02/27 03:01:05;;;;;;;10.27;4.20;;;2.90;51.10;;;;;;5020429;28;20401;-74
2022/02/27 03:03:32;;;;;;;12.07;4.38;;;2.90;48.80;;;;;;5028230;28;20417;-75
2022/02/27 03:05:57;;;;;;;11.20;3.30;;;2.90;49.90;;;;;;5014565;28;20404;-75
2022/02/27 03:08:23;;;;;;;17.90;4.33;;;2.80;50.00;;;;;;5017182;28;20394;-74
2022/02/27 03:10:48;;;;;;;17.35;4.13;;;2.70;51.20;;;;;;5019870;28;20765;-74
2022/02/27 03:13:14;;;;;;;12.93;4.15;;;2.80;51.20;;;;;;5020474;28;20914;-74
2022/02/27 03:15:40;;;;;;;11.90;3.60;;;2.90;49.50;;;;;;5014112;28;20431;-73
2022/02/27 03:18:06;;;;;;;16.30;3.47;;;3.10;48.60;;;;;;5018294;28;20482;-73
2022/02/27 03:20:31;;;;;;;11.18;3.60;;;3.00;46.70;;;;;;5015225;28;20894;-73
2022/02/27 03:22:57;;;;;;;12.63;3.50;;;3.00;47.00;;;;;;5025255;28;20485;-74
2022/02/27 03:25:22;;;;;;;13.53;3.40;;;3.00;46.30;;;;;;5029346;28;20395;-74
2022/02/27 03:27:49;;;;;;;11.47;3.20;;;3.00;47.00;;;;;;5027882;28;20442;-73
2022/02/27 03:30:15;;;;;;;15.05;3.58;;;3.00;46.80;;;;;;5020458;28;20886;-74
2022/02/27 03:32:46;;;;;;;10.73;3.43;;;3.00;46.10;;;;;;5014865;28;20396;-73
2022/02/27 03:35:13;;;;;;;13.15;3.22;;;3.10;49.10;;;;;;5015487;28;20397;-75
2022/02/27 03:37:38;;;;;;;12.00;3.80;;;3.00;46.60;;;;;;5025258;28;20397;-75
2022/02/27 03:40:05;;;;;;;10.17;3.70;;;3.10;48.10;;;;;;5027008;28;20468;-74
2022/02/27 03:42:30;;;;;;;12.70;3.53;;;3.30;45.10;;;;;;5024034;28;20405;-74
2022/02/27 03:44:56;;;;;;;8.13;3.17;;;3.20;46.50;;;;;;5019872;28;20414;-74
2022/02/27 03:47:22;;;;;;;14.95;3.50;;;3.00;46.60;;;;;;5025082;28;20427;-74
2022/02/27 03:49:47;;;;;;;6.67;3.60;;;3.00;46.30;;;;;;5013742;28;20778;-74
2022/02/27 03:52:13;;;;;;;9.50;3.57;;;3.10;44.70;;;;;;5023919;28;20470;-74
2022/02/27 03:54:39;;;;;;;10.90;3.90;;;3.20;44.60;;;;;;5027526;28;20468;-74
2022/02/27 03:57:04;;;;;;;12.13;3.70;;;3.10;45.30;;;;;;5026882;28;20387;-75
2022/02/27 03:59:30;;;;;;;13.00;3.80;;;3.00;43.40;;;;;;5024599;28;20398;-73
2022/02/27 04:01:55;;;;;;;11.82;4.03;;;3.30;43.90;;;;;;5023138;28;20396;-73
2022/02/27 04:04:21;;;;;;;7.35;4.10;;;3.00;44.20;;;;;;5025368;28;20405;-73
2022/02/27 04:06:46;;;;;;;13.07;3.53;;;2.90;46.50;;;;;;5030127;28;20395;-73
2022/02/27 04:09:12;;;;;;;6.87;2.90;;;2.80;45.30;;;;;;5007774;28;20506;-74
2022/02/27 04:11:38;;;;;;;8.83;2.93;;;2.80;45.70;;;;;;5020042;28;20401;-73
2022/02/27 04:14:03;;;;;;;9.52;3.50;;;3.00;47.10;;;;;;5018562;28;20389;-74
2022/02/27 04:16:29;;;;;;;8.95;3.33;;;3.00;45.20;;;;;;5013545;28;20396;-73
2022/02/27 04:18:54;;;;;;;10.77;3.30;;;2.90;47.10;;;;;;5012428;28;20534;-73
2022/02/27 04:21:21;;;;;;;10.73;3.23;;;2.90;45.00;;;;;;5010785;28;20644;-73
2022/02/27 04:23:46;;;;;;;10.52;3.50;;;3.10;45.40;;;;;;5019034;28;20429;-73
2022/02/27 04:26:12;;;;;;;13.07;3.40;;;3.00;44.60;;;;;;5022319;28;20425;-73
2022/02/27 04:28:38;;;;;;;10.03;3.27;;;3.00;45.00;;;;;;5012682;28;20900;-74
2022/02/27 04:31:03;;;;;;;9.73;3.22;;;2.90;45.40;;;;;;5011982;28;20508;-73
2022/02/27 04:33:29;;;;;;;11.30;2.95;;;3.00;45.70;;;;;;5019256;28;20397;-75
2022/02/27 04:35:54;;;;;;;13.07;4.03;;;3.00;43.80;;;;;;5011360;28;20436;-74
2022/02/27 04:38:20;;;;;;;9.37;2.67;;;3.00;44.00;;;;;;5012147;28;20441;-73
2022/02/27 04:40:46;;;;;;;12.13;3.60;;;3.20;44.20;;;;;;5012760;28;20874;-75
2022/02/27 04:43:11;;;;;;;14.65;3.83;;;3.10;43.10;;;;;;5010301;28;20491;-74
2022/02/27 04:45:37;;;;;;;12.55;3.42;;;3.10;41.70;;;;;;5012886;28;20424;-74
2022/02/27 04:48:03;;;;;;;13.33;3.53;;;3.10;43.40;;;;;;5011430;28;20419;-74
2022/02/27 04:50:28;;;;;;;13.73;3.53;;;3.20;41.50;;;;;;5014001;28;20420;-73
2022/02/27 04:52:54;;;;;;;12.10;3.30;;;3.10;44.00;;;;;;5016689;28;20483;-74
2022/02/27 04:55:20;;;;;;;5.80;3.40;;;2.90;42.80;;;;;;5019666;28;20396;-73
2022/02/27 04:57:45;;;;;;;11.70;3.27;;;2.80;42.70;;;;;;5024370;28;20399;-74
2022/02/27 05:00:12;;;;;;;13.05;3.55;;;2.80;42.60;;;;;;5007950;28;20416;-74
2022/02/27 05:02:37;;;;;;;8.20;3.60;;;2.90;45.60;;;;;;5021377;28;20429;-74
2022/02/27 05:05:04;;;;;;;12.82;3.35;;;3.00;46.00;;;;;;5025302;28;20427;-74
2022/02/27 05:07:29;;;;;;;11.57;3.78;;;2.90;44.30;;;;;;5024267;28;20963;-74
2022/02/27 05:09:55;;;;;;;6.43;2.80;;;2.90;43.80;;;;;;5021769;28;20575;-73
2022/02/27 05:12:21;;;;;;;8.90;3.10;;;3.00;43.10;;;;;;5019524;28;20440;-74
2022/02/27 05:14:46;;;;;;;8.77;3.10;;;2.90;43.60;;;;;;5014196;28;20476;-74
2022/02/27 05:17:12;;;;;;;10.83;3.20;;;2.70;43.70;;;;;;5014398;28;20397;-74
2022/02/27 05:19:37;;;;;;;16.33;4.10;;;2.50;45.60;;;;;;5013521;28;20537;-73
2022/02/27 05:22:03;;;;;;;9.25;3.50;;;2.50;45.40;;;;;;4994040;28;20424;-73
2022/02/27 05:24:29;;;;;;;11.82;3.05;;;2.40;46.80;;;;;;5014059;28;20400;-73
2022/02/27 05:26:55;;;;;;;11.48;3.70;;;2.40;45.00;;;;;;5026109;28;20410;-73
2022/02/27 05:29:20;;;;;;;11.05;3.70;;;2.50;45.80;;;;;;5029841;28;20407;-73
2022/02/27 05:31:46;;;;;;;7.73;3.50;;;2.30;46.70;;;;;;5039935;28;20398;-73
2022/02/27 05:34:11;;;;;;;15.43;4.20;;;2.30;45.50;;;;;;5033744;28;20840;-73
2022/02/27 05:36:37;;;;;;;9.37;3.27;;;2.10;46.70;;;;;;5020518;28;20424;-73
2022/02/27 05:39:04;;;;;;;8.55;3.00;;;2.10;48.40;;;;;;5010709;28;20395;-73
2022/02/27 05:41:30;;;;;;;7.22;3.30;;;2.10;48.10;;;;;;5020679;28;20419;-73
2022/02/27 05:43:56;;;;;;;9.50;3.00;;;2.10;48.90;;;;;;5021381;28;20483;-73
2022/02/27 05:46:22;;;;;;;8.88;3.60;;;2.20;47.60;;;;;;5023736;28;20492;-73
2022/02/27 05:48:48;;;;;;;9.27;3.60;;;2.10;47.70;;;;;;5025358;28;20831;-73
2022/02/27 05:51:13;;;;;;;6.68;3.28;;;1.90;47.30;;;;;;5020263;28;20405;-72
2022/02/27 05:53:39;;;;;;;9.38;3.65;;;1.90;49.80;;;;;;5022937;28;20429;-73
2022/02/27 05:56:05;;;;;;;9.20;3.23;;;1.80;50.80;;;;;;5016788;28;20501;-73
2022/02/27 05:58:34;;;;;;;10.70;3.72;;;1.70;52.20;;;;;;5017036;28;20470;-72
2022/02/27 06:01:01;;;;;;;6.93;3.60;;;1.90;50.80;;;;;;5015554;28;20404;-75
2022/02/27 06:03:27;;;;;;;8.55;4.22;;;2.00;50.50;;;;;;5028087;28;20758;-74
2022/02/27 06:05:53;;;;;;;15.30;4.47;;;2.00;50.30;;;;;;5028158;28;20399;-74
2022/02/27 06:08:18;;;;;;;10.95;4.60;;;1.90;50.40;;;;;;5016443;28;20821;-74
2022/02/27 06:10:44;;;;;;;8.90;3.60;;;1.80;50.20;;;;;;5017562;28;20443;-74
2022/02/27 06:13:10;;;;;;;8.70;4.20;;;1.90;51.90;;;;;;5025535;28;20396;-74
2022/02/27 06:15:35;;;;;;;7.78;4.40;;;1.90;50.00;;;;;;5021137;28;20439;-74
2022/02/27 06:18:01;;;;;;;9.75;3.70;;;2.00;51.20;;;;;;5017075;28;20404;-74
2022/02/27 06:20:26;;;;;;;8.52;3.58;;;2.00;49.30;;;;;;5023766;28;20398;-73
2022/02/27 06:22:52;;;;;;;15.30;4.47;;;1.90;48.70;;;;;;5025315;28;20529;-72
2022/02/27 06:25:19;;;;;;;15.02;4.70;;;1.80;49.70;;;;;;5028561;28;20898;-73
2022/02/27 06:27:46;;;;;;;12.60;4.40;;;1.80;49.10;;;;;;5028541;28;20476;-73
2022/02/27 06:30:14;;;;;;;10.43;4.22;;;2.00;49.90;;;;;;5022742;28;20415;-73
2022/02/27 06:32:40;;;;;;;10.23;4.43;;;2.10;48.20;;;;;;5028408;28;20395;-73
2022/02/27 06:35:08;;;;;;;14.75;4.45;;;2.20;46.60;;;;;;5013979;28;20974;-73
2022/02/27 06:37:33;;;;;;;9.35;4.22;;;2.30;45.30;;;;;;5033905;28;20431;-74
2022/02/27 06:39:59;;;;;;;14.10;4.90;;;2.40;45.30;;;;;;5035545;28;20398;-73
2022/02/27 06:42:24;;;;;;;12.55;4.40;;;2.50;44.90;;;;;;5000281;28;20401;-73
2022/02/27 06:44:50;;;;;;;11.98;4.70;;;2.50;44.50;;;;;;5004724;28;20400;-73
2022/02/27 06:47:16;;;;;;;13.37;4.73;;;2.70;43.90;;;;;;5024044;28;20404;-72
2022/02/27 06:49:42;;;;;;;10.95;4.40;;;2.70;40.10;;;;;;5025059;28;20444;-72
2022/02/27 06:52:07;;;;;;;10.43;4.63;;;2.70;40.00;;;;;;5019645;28;20921;-72
2022/02/27 06:54:33;;;;;;;14.65;4.53;;;2.70;40.30;;;;;;5017669;28;20394;-72
2022/02/27 06:56:58;;;;;;;11.00;4.80;;;2.80;39.80;;;;;;5017194;28;20409;-74
2022/02/27 06:59:24;;;;;;;11.33;4.33;;;2.90;40.40;;;;;;5014287;28;20396;-73
2022/02/27 07:01:49;;;;;;;9.47;4.90;;;3.10;37.70;;;;;;5018691;28;20399;-73
2022/02/27 07:04:15;;;;;;;9.17;4.47;;;3.10;39.70;;;;;;5020287;28;20420;-73
2022/02/27 07:06:40;;;;;;;13.40;4.50;;;3.30;36.80;;;;;;5010829;28;20407;-71
2022/02/27 07:09:07;;;;;;;11.65;4.22;;;3.40;36.80;;;;;;5016776;28;20484;-71
2022/02/27 07:11:33;;;;;;;6.47;4.28;;;3.60;35.60;;;;;;5021074;28;20429;-72
2022/02/27 07:13:58;;;;;;;10.63;4.85;;;3.80;34.10;;;;;;5017472;28;20398;-71
2022/02/27 07:16:24;;;;;;;9.97;4.43;;;3.80;32.40;;;;;;5026651;28;20737;-71
2022/02/27 07:18:50;;;;;;;8.23;3.97;;;3.90;33.60;;;;;;5006749;28;20428;-73
2022/02/27 07:21:16;;;;;;;10.82;4.50;;;3.90;32.80;;;;;;5020964;28;20395;-74
2022/02/27 07:23:42;;;;;;;10.20;4.53;;;4.00;32.50;;;;;;5013993;28;20400;-73
2022/02/27 07:26:08;;;;;;;10.07;4.50;;;4.10;31.80;;;;;;5013107;28;20955;-74
2022/02/27 07:28:33;;;;;;;9.95;4.20;;;4.30;31.30;;;;;;5019987;28;20792;-72
2022/02/27 07:30:59;;;;;;;9.60;4.75;;;4.20;30.60;;;;;;5027234;28;20412;-73
2022/02/27 07:33:24;;;;;;;11.18;3.97;;;4.30;30.70;;;;;;5020780;28;20428;-72
2022/02/27 07:35:51;;;;;;;9.13;4.00;;;4.40;32.10;;;;;;5010564;28;20407;-71
2022/02/27 07:38:16;;;;;;;9.55;4.20;;;4.60;29.60;;;;;;5017287;28;20422;-72
2022/02/27 07:40:42;;;;;;;13.38;4.53;;;4.70;28.40;;;;;;5033212;28;20399;-71
2022/02/27 07:43:07;;;;;;;12.43;4.60;;;4.60;28.00;;;;;;5041840;28;20470;-73
2022/02/27 07:45:33;;;;;;;12.53;4.90;;;4.60;29.00;;;;;;5019872;28;20752;-73
2022/02/27 07:47:58;;;;;;;14.50;4.70;;;4.80;29.60;;;;;;5019149;28;20406;-73
2022/02/27 07:50:24;;;;;;;10.87;4.57;;;4.80;29.60;;;;;;5018531;28;20468;-75
2022/02/27 07:52:50;;;;;;;11.50;4.40;;;4.90;28.60;;;;;;5019314;28;20405;-73
2022/02/27 07:55:18;;;;;;;8.03;3.83;;;5.00;28.70;;;;;;5011124;28;20492;-73
2022/02/27 07:57:43;;;;;;;7.03;4.00;;;5.10;28.20;;;;;;5010011;28;20490;-73
2022/02/27 08:00:09;;;;;;;15.40;4.60;;;5.10;29.40;;;;;;5014421;28;20405;-73
2022/02/27 08:02:35;;;;;;;9.30;4.30;;;5.10;28.20;;;;;;5015701;28;20408;-74
2022/02/27 08:05:01;;;;;;;11.90;4.70;;;5.20;28.70;;;;;;5026628;28;20415;-74
2022/02/27 08:07:26;;;;;;;12.50;4.60;;;5.40;29.20;;;;;;5015175;28;20430;-74
2022/02/27 08:09:52;;;;;;;12.80;4.70;;;5.40;28.50;;;;;;5011198;28;20918;-74
2022/02/27 08:12:17;;;;;;;15.30;5.43;;;5.40;27.10;;;;;;5012071;28;20484;-73
2022/02/27 08:14:46;;;;;;;12.93;4.60;;;5.40;29.00;;;;;;5040013;28;20407;-74
2022/02/27 08:17:13;;;;;;;14.93;5.18;;;5.60;31.50;;;;;;5032204;28;20454;-74
2022/02/27 08:19:39;;;;;;;10.50;4.60;;;5.50;27.70;;;;;;5012671;28;20405;-73
2022/02/27 08:22:05;;;;;;;15.13;5.30;;;5.60;26.90;;;;;;5007527;28;20412;-75
2022/02/27 08:24:30;;;;;;;20.05;5.25;;;5.60;28.20;;;;;;5004662;28;20757;-74
2022/02/27 08:26:56;;;;;;;7.87;4.40;;;5.70;28.10;;;;;;5010964;28;20417;-74
2022/02/27 08:29:22;;;;;;;16.58;4.70;;;5.90;29.10;;;;;;5021260;28;20472;-74
2022/02/27 08:31:48;;;;;;;26.77;6.10;;;6.00;27.80;;;;;;5016280;28;20428;-74
2022/02/27 08:34:13;;;;;;;13.80;4.73;;;6.10;26.70;;;;;;5013493;28;20496;-73
2022/02/27 08:36:40;;;;;;;7.73;4.23;;;6.10;26.30;;;;;;5015231;28;20447;-74
2022/02/27 08:39:07;;;;;;;15.50;4.50;;;6.20;27.50;;;;;;5027546;28;20800;-74
2022/02/27 08:41:32;;;;;;;9.10;4.32;;;6.20;26.60;;;;;;5019849;28;20400;-74
2022/02/27 08:43:58;;;;;;;12.13;4.60;;;6.20;25.70;;;;;;5021782;28;20497;-74
2022/02/27 08:46:23;;;;;;;10.63;3.97;;;6.30;26.10;;;;;;5018935;28;20477;-74
2022/02/27 08:48:50;;;;;;;11.93;4.30;;;6.50;26.00;;;;;;4990502;28;20405;-74
2022/02/27 08:51:15;;;;;;;13.15;4.88;;;6.40;25.90;;;;;;5007485;28;20414;-77
2022/02/27 08:53:41;;;;;;;18.17;4.80;;;6.50;25.00;;;;;;5012903;28;20393;-72
2022/02/27 08:56:07;;;;;;;11.63;4.50;;;6.60;24.70;;;;;;5008480;28;20479;-74
2022/02/27 08:58:32;;;;;;;11.57;4.37;;;6.60;24.60;;;;;;5018109;28;20434;-73
2022/02/27 09:00:58;;;;;;;13.23;4.17;;;6.60;25.50;;;;;;5010522;28;20397;-73
2022/02/27 09:03:27;;;;;;;12.20;3.90;;;6.80;26.30;;;;;;4994707;28;20409;-74
2022/02/27 09:05:52;;;;;;;8.60;4.05;;;6.90;23.70;;;;;;5017331;28;20457;-74
2022/02/27 09:08:19;;;;;;;10.10;4.00;;;6.90;23.30;;;;;;5018025;28;20413;-73
2022/02/27 09:10:45;;;;;;;8.23;4.13;;;6.90;23.80;;;;;;5012939;28;20440;-74
2022/02/27 09:13:11;;;;;;;10.63;3.95;;;6.90;24.90;;;;;;5014742;28;20397;-72
2022/02/27 09:15:37;;;;;;;11.85;4.63;;;7.00;22.90;;;;;;5015547;28;20404;-74
2022/02/27 09:18:03;;;;;;;10.23;4.63;;;7.10;23.20;;;;;;5016774;28;20401;-75
2022/02/27 09:20:28;;;;;;;10.50;4.10;;;7.10;22.50;;;;;;5009513;28;20393;-74
2022/02/27 09:22:54;;;;;;;11.13;3.97;;;7.20;22.90;;;;;;5012994;28;20400;-76
2022/02/27 09:25:20;;;;;;;7.23;3.43;;;7.30;24.80;;;;;;5013322;28;20922;-73
2022/02/27 09:27:46;;;;;;;9.40;4.18;;;7.30;22.50;;;;;;5016257;28;20810;-73
2022/02/27 09:30:12;;;;;;;9.20;4.00;;;7.40;22.10;;;;;;5026449;28;20457;-74
2022/02/27 09:32:39;;;;;;;7.18;3.70;;;7.50;23.00;;;;;;5025305;28;20397;-74
2022/02/27 09:35:06;;;;;;;7.78;3.60;;;7.60;21.60;;;;;;5019278;28;20410;-74
2022/02/27 09:37:33;;;;;;;7.95;3.63;;;7.70;22.00;;;;;;5027068;28;20820;-74
2022/02/27 09:39:59;;;;;;;6.10;3.33;;;7.70;20.40;;;;;;5025996;28;20466;-75
2022/02/27 09:42:29;;;;;;;9.23;3.53;;;7.60;20.00;;;;;;5036046;28;20405;-75
2022/02/27 09:44:56;;;;;;;9.63;4.10;;;7.70;20.20;;;;;;5032191;28;20448;-74
2022/02/27 09:47:22;;;;;;;13.32;3.70;;;7.90;21.30;;;;;;5024008;28;20400;-75
2022/02/27 09:49:48;;;;;;;8.15;3.50;;;7.90;21.60;;;;;;5024801;28;20499;-74
2022/02/27 09:52:19;;;;;;;6.00;3.42;;;8.00;21.00;;;;;;5035833;28;20443;-75
2022/02/27 09:54:46;;;;;;;4.90;3.20;;;8.20;19.30;;;;;;5005270;28;20506;-73
2022/02/27 09:57:15;;;;;;;5.65;3.33;;;8.30;17.90;;;;;;5008986;28;20456;-74
2022/02/27 09:59:41;;;;;;;6.68;3.20;;;8.10;18.30;;;;;;5021162;28;20409;-74
2022/02/27 10:02:07;;;;;;;9.05;3.40;;;8.20;19.20;;;;;;5025022;28;20900;-75
2022/02/27 10:04:44;;;;;;;7.30;3.30;;;8.30;18.10;;;;;;5018631;28;20465;-75
2022/02/27 10:07:11;;;;;;;6.50;3.20;;;8.40;17.80;;;;;;5023396;28;20427;-75
2022/02/27 10:09:38;;;;;;;5.75;3.10;;;8.50;17.00;;;;;;5017347;28;20555;-75
2022/02/27 10:12:14;;;;;;;8.60;3.50;;;8.30;17.30;;;;;;5018891;28;20402;-75
2022/02/27 10:14:40;;;;;;;7.30;3.03;;;8.40;17.30;;;;;;5022685;28;20407;-74
2022/02/27 10:17:06;;;;;;;7.30;3.50;;;8.30;17.00;;;;;;5023367;28;20759;-74
2022/02/27 10:19:40;;;;;;;5.88;2.70;;;8.30;16.30;;;;;;5016773;28;20399;-74
2022/02/27 10:22:08;;;;;;;7.22;3.15;;;8.40;17.10;;;;;;5016725;28;20426;-73
2022/02/27 10:24:36;;;;;;;5.07;2.92;;;8.50;15.80;;;;;;5022731;28;20823;-73
2022/02/27 10:27:09;;;;;;;11.48;3.55;;;8.40;15.70;;;;;;5016205;28;20928;-73
2022/02/27 10:29:35;;;;;;;5.80;2.97;;;8.50;15.70;;;;;;5017335;28;20471;-73
2022/02/27 10:32:03;;;;;;;5.45;3.05;;;8.50;17.00;;;;;;5011074;28;20409;-75
2022/02/27 10:34:34;;;;;;;5.75;3.17;;;8.70;16.20;;;;;;5013336;28;20410;-75
2022/02/27 10:37:10;;;;;;;5.85;3.00;;;8.70;15.80;;;;;;5013319;28;20423;-75
2022/02/27 10:39:38;;;;;;;4.80;2.90;;;8.70;16.00;;;;;;5020945;28;20397;-75
2022/02/27 10:42:34;;;;;;;7.40;2.95;;;8.70;16.00;;;;;;5019434;28;20411;-73
2022/02/27 10:45:02;;;;;;;3.65;2.78;;;8.80;17.40;;;;;;5015847;28;20416;-73
2022/02/27 10:47:31;;;;;;;5.40;2.67;;;8.90;15.60;;;;;;5023245;28;20407;-74
2022/02/27 10:49:59;;;;;;;8.35;3.42;;;8.90;14.70;;;;;;5017851;28;20416;-74
2022/02/27 10:52:28;;;;;;;4.90;2.50;;;8.80;15.00;;;;;;5021989;28;20898;-74
2022/02/27 10:55:04;;;;;;;4.80;2.72;;;8.90;14.40;;;;;;5038402;28;20408;-74
2022/02/27 10:57:46;;;;;;;7.30;3.20;;;8.70;14.10;;;;;;5037321;28;20463;-74
2022/02/27 11:00:28;;;;;;;7.57;2.85;;;8.70;13.70;;;;;;5018462;28;20440;-74
2022/02/27 11:03:13;;;;;;;6.78;2.92;;;8.90;14.00;;;;;;5014418;28;20404;-74
2022/02/27 11:05:41;;;;;;;4.78;2.83;;;8.90;14.10;;;;;;5012656;28;20764;-74
2022/02/27 11:08:10;;;;;;;6.43;2.80;;;9.00;14.40;;;;;;5026476;28;20400;-76
2022/02/27 11:10:38;;;;;;;8.55;3.53;;;9.10;14.60;;;;;;5013625;28;20420;-74
2022/02/27 11:13:06;;;;;;;4.15;3.00;;;9.00;15.10;;;;;;5017535;28;20396;-75
2022/02/27 11:15:32;;;;;;;6.07;2.88;;;9.10;14.80;;;;;;4999965;28;20408;-75
2022/02/27 11:17:58;;;;;;;7.30;4.47;;;9.10;15.30;;;;;;5014507;28;20402;-74
2022/02/27 11:20:25;;;;;;;4.85;2.70;;;9.30;15.40;;;;;;5014731;28;20389;-76
2022/02/27 11:22:52;;;;;;;6.63;2.88;;;9.40;14.90;;;;;;5013248;28;20405;-74
2022/02/27 11:25:18;;;;;;;6.87;3.30;;;9.30;14.70;;;;;;5017991;28;20802;-75
2022/02/27 11:28:05;;;;;;;7.33;3.00;;;9.30;15.90;;;;;;5025234;28;20399;-75
2022/02/27 11:30:34;;;;;;;7.43;2.83;;;9.20;14.70;;;;;;5020731;28;20844;-75
2022/02/27 11:33:05;;;;;;;5.70;3.10;;;9.40;16.20;;;;;;5015565;28;20891;-74
2022/02/27 11:35:39;;;;;;;7.05;3.65;;;9.40;15.10;;;;;;5022792;28;20744;-75
2022/02/27 11:38:16;;;;;;;6.50;3.15;;;9.40;14.60;;;;;;5035263;28;20429;-74
2022/02/27 11:40:56;;;;;;;5.90;2.90;;;9.40;15.30;;;;;;5027297;28;20460;-73
2022/02/27 11:43:52;;;;;;;4.47;3.25;;;9.40;15.00;;;;;;5038047;28;20893;-73
2022/02/27 11:46:40;;;;;;;6.20;3.47;;;9.50;15.60;;;;;;5034209;28;20439;-73
2022/02/27 11:49:11;;;;;;;4.32;2.78;;;9.60;15.10;;;;;;5033800;28;20395;-73
2022/02/27 11:51:36;;;;;;;7.38;3.60;;;9.70;15.60;;;;;;5037303;28;20399;-73
2022/02/27 11:54:06;;;;;;;5.07;3.30;;;9.70;15.70;;;;;;5030820;28;20657;-73
2022/02/27 11:56:32;;;;;;;5.63;2.70;;;9.70;14.60;;;;;;5025928;28;20395;-74
2022/02/27 11:58:57;;;;;;;7.35;3.45;;;9.80;14.80;;;;;;5029124;28;20435;-74
2022/02/27 12:01:42;;;;;;;5.13;3.03;;;9.80;14.20;;;;;;5034969;28;20401;-73
2022/02/27 12:04:33;;;;;;;5.78;2.90;;;10.00;14.60;;;;;;5031018;28;20451;-74
2022/02/27 12:07:09;;;;;;;4.97;3.30;;;10.00;13.20;;;;;;5028549;28;20420;-74
2022/02/27 12:09:50;;;;;;;11.50;2.90;;;10.00;13.80;;;;;;5025917;28;20505;-74
2022/02/27 12:12:37;;;;;;;6.55;3.08;;;10.00;13.90;;;;;;5017491;28;20400;-76
2022/02/27 12:15:27;;;;;;;7.83;2.80;;;10.10;13.50;;;;;;5015826;28;20432;-73
2022/02/27 12:18:13;;;;;;;7.25;2.78;;;10.00;11.50;;;;;;5019946;28;20391;-74
2022/02/27 12:20:59;;;;;;;4.85;2.80;;;10.10;13.80;;;;;;5019041;28;20407;-74
2022/02/27 12:23:27;;;;;;;3.28;2.50;;;10.10;12.00;;;;;;5015184;28;20403;-74
2022/02/27 12:25:54;;;;;;;10.50;2.47;;;10.10;12.70;;;;;;5017464;28;20412;-74
2022/02/27 12:28:44;;;;;;;4.38;2.70;;;10.10;11.90;;;;;;5019308;28;20405;-74
2022/02/27 12:31:10;;;;;;;4.70;2.70;;;10.10;11.90;;;;;;5017715;28;20444;-73
2022/02/27 12:33:36;;;;;;;6.50;2.70;;;10.20;12.60;;;;;;5022408;28;20435;-73
2022/02/27 12:36:02;;;;;;;4.70;2.90;;;10.20;11.00;;;;;;5016646;28;20404;-74
2022/02/27 12:38:28;;;;;;;5.88;2.90;;;10.20;10.60;;;;;;5009936;28;20404;-74
2022/02/27 12:41:03;;;;;;;4.43;2.72;;;10.20;11.50;;;;;;4996668;28;20389;-74
2022/02/27 12:43:30;;;;;;;5.20;3.17;;;10.20;13.60;;;;;;5011686;28;20425;-74
2022/02/27 12:45:56;;;;;;;6.03;2.85;;;10.30;11.60;;;;;;5020167;28;20490;-75
2022/02/27 12:50:16;;;;;;;6.32;3.05;;;10.20;12.00;;;;;;5004208;28;20426;-74
2022/02/27 12:51:09;;;;;;;5.57;3.00;;;10.20;11.80;;;;;;5030915;28;20415;-74